Time;durP1;ratioP1;P1;durP2;ratioP2;P2;SDS_P1;SDS_P2;PMS_P1;PMS_P2;Temp;Humidity;BMP_temperature;BMP_pressure;BME280_temperature;BME280_humidity;BME280_pressure;Samples;Min_cycle;Max_cycle;Signal;HPM_P1;HPM_P2
2021/04/27 00:01:30;;;;;;;3.75;2.40;;;12.20;99.90;;;;;;5094253;28;20383;-50
2021/04/27 00:03:56;;;;;;;4.20;2.80;;;12.30;99.90;;;;;;5097150;28;20032;-49
2021/04/27 00:06:22;;;;;;;8.93;3.10;;;12.30;99.90;;;;;;5097192;28;20032;-49
2021/04/27 00:08:47;;;;;;;4.93;3.10;;;12.40;99.90;;;;;;5111581;28;20047;-52
2021/04/27 00:11:14;;;;;;;5.15;2.67;;;12.30;99.80;;;;;;5097048;28;20386;-49
2021/04/27 00:13:40;;;;;;;5.72;2.90;;;12.20;99.90;;;;;;5098739;28;20131;-49
2021/04/27 00:16:06;;;;;;;4.50;3.15;;;12.10;97.50;;;;;;5078364;28;20099;-49
2021/04/27 00:18:32;;;;;;;5.00;3.40;;;12.20;97.60;;;;;;5074233;28;20033;-49
2021/04/27 00:20:58;;;;;;;6.25;3.08;;;12.30;97.00;;;;;;5076715;28;20028;-51
2021/04/27 00:23:24;;;;;;;4.97;3.20;;;12.30;96.80;;;;;;5076123;28;20024;-51
2021/04/27 00:25:50;;;;;;;4.85;2.90;;;12.30;96.90;;;;;;5103293;28;20038;-50
2021/04/27 00:28:15;;;;;;;5.25;2.90;;;12.20;97.10;;;;;;5132236;27;20581;-48
2021/04/27 00:30:41;;;;;;;6.10;3.03;;;12.30;97.40;;;;;;5116856;28;20359;-49
2021/04/27 00:33:07;;;;;;;6.00;3.13;;;12.20;97.60;;;;;;5117102;28;20391;-50
2021/04/27 00:35:34;;;;;;;8.32;3.45;;;12.20;97.90;;;;;;5116440;28;20035;-52
2021/04/27 00:38:01;;;;;;;5.90;3.25;;;12.30;97.70;;;;;;5132007;27;20035;-50
2021/04/27 00:40:27;;;;;;;5.07;3.00;;;12.50;99.30;;;;;;5116628;28;20042;-51
2021/04/27 00:42:53;;;;;;;5.20;3.00;;;12.60;99.90;;;;;;5117019;28;20038;-52
2021/04/27 00:45:23;;;;;;;4.82;3.08;;;12.40;99.90;;;;;;5116946;28;20035;-52
2021/04/27 00:47:50;;;;;;;5.32;3.05;;;12.40;99.90;;;;;;5115715;27;20026;-51
2021/04/27 00:50:19;;;;;;;6.40;3.20;;;12.50;99.90;;;;;;5116973;28;20038;-49
2021/04/27 00:52:47;;;;;;;7.40;3.30;;;12.60;99.90;;;;;;5115868;28;20055;-48
2021/04/27 00:55:14;;;;;;;4.68;2.78;;;12.60;99.90;;;;;;5116365;28;20024;-51
2021/04/27 00:57:40;;;;;;;5.00;3.22;;;12.50;99.90;;;;;;5096472;28;20040;-52
2021/04/27 01:00:11;;;;;;;4.88;2.83;;;;;;;;;;5095856;28;20020;-49
2021/04/27 01:02:38;;;;;;;5.53;3.00;;;;;;;;;;5093977;28;20029;-52
2021/04/27 01:05:07;;;;;;;6.22;3.45;;;11.80;96.50;;;;;;5096223;28;20043;-51
2021/04/27 01:07:37;;;;;;;6.22;3.40;;;11.70;93.50;;;;;;5095842;28;20455;-49
2021/04/27 01:10:10;;;;;;;8.15;3.08;;;11.80;93.30;;;;;;5095765;28;20471;-51
2021/04/27 01:12:42;;;;;;;4.32;3.05;;;11.80;93.30;;;;;;5110564;28;20040;-50
2021/04/27 01:15:09;;;;;;;4.57;2.90;;;11.70;93.80;;;;;;5110370;28;20113;-51
2021/04/27 01:17:38;;;;;;;6.20;3.53;;;11.70;94.20;;;;;;5059759;28;20490;-50
2021/04/27 01:20:10;;;;;;;7.07;4.07;;;12.00;94.20;;;;;;5095312;28;20028;-49
2021/04/27 01:22:54;;;;;;;8.40;4.18;;;12.20;94.10;;;;;;5059102;28;20121;-49
2021/04/27 01:25:51;;;;;;;8.88;3.70;;;12.20;93.80;;;;;;5095731;28;20055;-53
2021/04/27 01:28:20;;;;;;;10.15;4.00;;;12.40;96.20;;;;;;5095428;28;20039;-53
2021/04/27 01:30:47;;;;;;;6.30;3.20;;;12.40;95.90;;;;;;5095098;28;20057;-51
2021/04/27 01:33:16;;;;;;;6.47;3.10;;;12.60;97.90;;;;;;5095575;28;20364;-48
2021/04/27 01:35:43;;;;;;;4.03;3.08;;;;;;;;;;5095356;28;20028;-51
2021/04/27 01:38:12;;;;;;;4.45;2.92;;;12.80;99.90;;;;;;5095006;28;20020;-52
2021/04/27 01:40:38;;;;;;;4.30;3.20;;;12.90;99.90;;;;;;5095482;28;20402;-52
2021/04/27 01:43:05;;;;;;;7.75;4.07;;;13.00;99.90;;;;;;5095261;28;20032;-47
2021/04/27 01:45:32;;;;;;;6.18;3.30;;;12.80;99.90;;;;;;5094893;28;20386;-52
2021/04/27 01:47:59;;;;;;;6.28;3.20;;;12.70;99.90;;;;;;5110048;28;20114;-51
2021/04/27 01:50:26;;;;;;;5.82;2.85;;;12.80;99.90;;;;;;5095266;28;20366;-47
2021/04/27 01:52:52;;;;;;;7.75;3.40;;;12.80;99.90;;;;;;5094146;28;20060;-50
2021/04/27 01:55:20;;;;;;;4.53;2.78;;;12.70;99.90;;;;;;5054859;28;20123;-51
2021/04/27 01:57:46;;;;;;;4.85;2.92;;;12.60;99.90;;;;;;5109753;28;20040;-49
2021/04/27 02:00:15;;;;;;;4.70;2.97;;;12.50;99.90;;;;;;5094265;28;20501;-50
2021/04/27 02:02:51;;;;;;;6.00;3.17;;;12.30;99.90;;;;;;5051407;28;20067;-52
2021/04/27 02:05:17;;;;;;;4.65;3.25;;;12.40;98.80;;;;;;5074293;28;20040;-48
2021/04/27 02:07:43;;;;;;;5.95;3.13;;;12.20;95.70;;;;;;5092349;28;20026;-49
2021/04/27 02:10:11;;;;;;;5.13;3.33;;;12.30;95.60;;;;;;5058725;28;20111;-52
2021/04/27 02:12:41;;;;;;;5.25;3.35;;;12.20;95.80;;;;;;5092150;28;20115;-49
2021/04/27 02:15:09;;;;;;;5.07;2.80;;;12.20;96.50;;;;;;5094466;28;20048;-51
2021/04/27 02:17:47;;;;;;;4.53;2.97;;;12.10;96.80;;;;;;5058623;28;20028;-52
2021/04/27 02:20:15;;;;;;;6.85;3.03;;;12.20;99.90;;;;;;5094400;28;20024;-50
2021/04/27 02:22:44;;;;;;;4.47;2.83;;;12.20;99.90;;;;;;5094572;28;20043;-51
2021/04/27 02:25:12;;;;;;;5.68;3.08;;;12.20;99.90;;;;;;5094479;28;20040;-50
2021/04/27 02:27:39;;;;;;;3.92;2.50;;;12.20;99.90;;;;;;5094858;28;20031;-50
2021/04/27 02:30:06;;;;;;;5.00;2.92;;;12.20;99.90;;;;;;5094076;28;20442;-53
2021/04/27 02:32:33;;;;;;;6.88;3.22;;;12.10;99.90;;;;;;5094176;28;20040;-51
2021/04/27 02:34:59;;;;;;;6.47;3.42;;;12.20;99.90;;;;;;5114428;28;20050;-52
2021/04/27 02:37:25;;;;;;;5.18;2.83;;;12.10;99.90;;;;;;5114063;28;20027;-52
2021/04/27 02:39:53;;;;;;;8.48;3.50;;;12.00;99.90;;;;;;5129463;27;20035;-52
2021/04/27 02:42:19;;;;;;;6.82;3.15;;;11.90;99.90;;;;;;5114196;28;20084;-51
2021/04/27 02:44:45;;;;;;;7.53;3.53;;;11.90;99.90;;;;;;5114189;28;20075;-51
2021/04/27 02:47:11;;;;;;;5.18;3.33;;;12.00;99.90;;;;;;5114081;28;20023;-53
2021/04/27 02:49:37;;;;;;;5.38;2.95;;;12.00;99.90;;;;;;5097410;28;20024;-54
2021/04/27 02:52:03;;;;;;;7.70;3.60;;;12.10;99.90;;;;;;5092965;28;20051;-52
2021/04/27 02:54:29;;;;;;;6.07;3.63;;;12.10;99.90;;;;;;5090304;28;20023;-53
2021/04/27 02:56:54;;;;;;;6.22;3.20;;;12.20;99.90;;;;;;5090593;28;20451;-53
2021/04/27 02:59:20;;;;;;;5.82;3.20;;;12.10;99.90;;;;;;5092860;28;20465;-50
2021/04/27 03:01:46;;;;;;;4.63;3.35;;;12.10;99.90;;;;;;5092476;28;20107;-53
2021/04/27 03:04:12;;;;;;;4.93;3.45;;;12.00;99.90;;;;;;5091602;28;20036;-50
2021/04/27 03:06:38;;;;;;;4.72;3.17;;;12.00;99.90;;;;;;5090585;28;20024;-53
2021/04/27 03:09:05;;;;;;;5.95;3.13;;;;;;;;;;5092731;28;20511;-53
2021/04/27 03:11:32;;;;;;;4.88;2.92;;;11.60;99.90;;;;;;5107690;28;20044;-51
2021/04/27 03:13:57;;;;;;;5.30;3.05;;;11.60;99.90;;;;;;5093084;28;20044;-54
2021/04/27 03:16:24;;;;;;;5.13;3.45;;;11.70;99.90;;;;;;5093367;28;20024;-53
2021/04/27 03:18:50;;;;;;;7.10;3.15;;;11.60;99.90;;;;;;5108373;28;20039;-52
2021/04/27 03:21:16;;;;;;;7.72;3.88;;;11.60;99.90;;;;;;5091144;28;20044;-52
2021/04/27 03:23:42;;;;;;;5.70;2.63;;;11.50;99.90;;;;;;5092870;28;20482;-54
2021/04/27 03:26:08;;;;;;;4.90;3.08;;;;;;;;;;5093510;28;20067;-51
2021/04/27 03:28:34;;;;;;;6.32;3.17;;;;;;;;;;5093521;28;20028;-53
2021/04/27 03:31:00;;;;;;;4.13;2.72;;;11.50;99.90;;;;;;5091326;28;20032;-54
2021/04/27 03:33:26;;;;;;;5.00;2.83;;;11.40;99.90;;;;;;5093180;28;20466;-51
2021/04/27 03:35:52;;;;;;;6.20;2.97;;;11.50;99.90;;;;;;5092915;28;20060;-50
2021/04/27 03:38:18;;;;;;;7.25;3.42;;;11.60;99.90;;;;;;5093007;28;20039;-52
2021/04/27 03:40:45;;;;;;;4.68;3.00;;;11.60;99.90;;;;;;5092957;28;20086;-53
2021/04/27 03:43:10;;;;;;;5.65;2.95;;;11.60;99.90;;;;;;5093270;28;20032;-51
2021/04/27 03:45:36;;;;;;;11.30;3.83;;;11.50;99.90;;;;;;5074201;28;20107;-53
2021/04/27 03:48:07;;;;;;;5.88;3.13;;;11.50;99.90;;;;;;5093129;28;20441;-53
2021/04/27 03:50:33;;;;;;;7.47;3.20;;;11.20;99.90;;;;;;5090891;28;20043;-50
2021/04/27 03:52:59;;;;;;;7.10;3.28;;;11.30;99.90;;;;;;5092815;28;20102;-54
2021/04/27 03:55:25;;;;;;;5.53;3.33;;;11.50;99.90;;;;;;5075685;28;20143;-53
2021/04/27 03:57:51;;;;;;;5.80;2.95;;;11.30;99.90;;;;;;5081899;28;20035;-51
2021/04/27 04:00:17;;;;;;;5.35;3.47;;;11.30;99.90;;;;;;5020822;28;20048;-51
2021/04/27 04:02:43;;;;;;;8.40;3.70;;;11.30;99.90;;;;;;5070503;28;20037;-49
2021/04/27 04:05:09;;;;;;;6.78;3.67;;;11.30;99.90;;;;;;5087584;28;20521;-53
2021/04/27 04:07:35;;;;;;;6.18;3.50;;;11.40;99.90;;;;;;5070434;28;20039;-52
2021/04/27 04:10:02;;;;;;;5.13;3.20;;;11.40;99.90;;;;;;5089689;28;20023;-53
2021/04/27 04:12:28;;;;;;;5.90;3.83;;;11.30;99.90;;;;;;5096612;28;20444;-52
2021/04/27 04:14:54;;;;;;;4.22;3.35;;;11.30;99.90;;;;;;5092795;28;20067;-53
2021/04/27 04:17:19;;;;;;;6.80;3.25;;;11.20;99.90;;;;;;5093113;28;20107;-51
2021/04/27 04:19:47;;;;;;;6.47;3.85;;;11.20;99.90;;;;;;5092627;28;20035;-51
2021/04/27 04:22:12;;;;;;;5.55;3.22;;;11.30;99.90;;;;;;5093149;28;20040;-49
2021/04/27 04:24:38;;;;;;;5.40;3.40;;;11.30;99.90;;;;;;5095593;28;20085;-51
2021/04/27 04:27:04;;;;;;;6.35;3.17;;;11.30;99.90;;;;;;5094275;28;20126;-53
2021/04/27 04:29:30;;;;;;;7.97;3.85;;;11.10;99.90;;;;;;5094248;28;20063;-54
2021/04/27 04:31:55;;;;;;;8.90;4.35;;;11.10;99.90;;;;;;5106238;28;20543;-51
2021/04/27 04:34:21;;;;;;;7.35;3.97;;;11.30;99.90;;;;;;5096484;28;20044;-50
2021/04/27 04:36:48;;;;;;;9.98;4.75;;;11.40;99.90;;;;;;5096192;28;20028;-52
2021/04/27 04:39:14;;;;;;;9.23;5.07;;;11.40;99.90;;;;;;5096310;28;20455;-53
2021/04/27 04:41:40;;;;;;;7.32;3.85;;;11.30;99.90;;;;;;5096248;28;20462;-52
2021/04/27 04:44:06;;;;;;;6.50;3.72;;;11.20;99.90;;;;;;5093869;28;20067;-53
2021/04/27 04:46:32;;;;;;;6.20;3.60;;;11.20;99.90;;;;;;5096479;28;20474;-51
2021/04/27 04:48:58;;;;;;;4.22;3.45;;;11.30;99.90;;;;;;5095765;28;20024;-51
2021/04/27 04:51:25;;;;;;;6.80;4.15;;;11.30;99.90;;;;;;5096453;28;20024;-50
2021/04/27 04:53:52;;;;;;;5.55;4.00;;;11.40;99.90;;;;;;5095234;28;20035;-52
2021/04/27 04:56:18;;;;;;;4.93;3.53;;;11.40;99.90;;;;;;5089759;28;20021;-50
2021/04/27 04:58:44;;;;;;;5.85;3.55;;;11.40;99.90;;;;;;5082870;28;20044;-50
2021/04/27 05:01:11;;;;;;;5.15;3.53;;;11.40;99.90;;;;;;5094669;28;20344;-54
2021/04/27 05:03:37;;;;;;;5.43;3.55;;;11.40;99.90;;;;;;5059824;28;20033;-50
2021/04/27 05:06:04;;;;;;;6.25;4.45;;;11.20;99.90;;;;;;5076014;28;20442;-53
2021/04/27 05:08:43;;;;;;;6.53;4.10;;;11.10;99.90;;;;;;5075465;28;20055;-51
2021/04/27 05:11:08;;;;;;;7.28;4.25;;;11.10;99.90;;;;;;5079014;28;20460;-54
2021/04/27 05:13:34;;;;;;;6.43;3.55;;;11.10;99.90;;;;;;5095130;28;20135;-53
2021/04/27 05:16:03;;;;;;;7.13;4.25;;;11.00;99.90;;;;;;5096494;28;20026;-54
2021/04/27 05:18:29;;;;;;;6.13;4.05;;;11.00;99.90;;;;;;5095733;28;20032;-52
2021/04/27 05:20:55;;;;;;;8.25;4.38;;;11.00;99.90;;;;;;5095521;28;20054;-50
2021/04/27 05:23:22;;;;;;;10.23;5.85;;;11.10;99.90;;;;;;5091097;28;20460;-50
2021/04/27 05:25:49;;;;;;;10.40;6.28;;;10.90;99.90;;;;;;5056998;28;20483;-52
2021/04/27 05:28:15;;;;;;;12.43;6.40;;;11.20;99.90;;;;;;5076056;28;20048;-51
2021/04/27 05:30:41;;;;;;;10.63;6.70;;;11.20;99.90;;;;;;5072304;28;20082;-54
2021/04/27 05:33:07;;;;;;;10.00;5.40;;;11.30;99.90;;;;;;5072342;28;20029;-51
2021/04/27 05:35:33;;;;;;;8.13;4.88;;;11.30;99.90;;;;;;5071901;28;20048;-51
2021/04/27 05:37:59;;;;;;;9.45;5.45;;;11.30;99.90;;;;;;5022450;28;20036;-50
2021/04/27 05:40:25;;;;;;;7.53;4.60;;;11.40;99.90;;;;;;5072829;28;20033;-52
2021/04/27 05:42:51;;;;;;;7.72;5.15;;;11.40;99.90;;;;;;5072443;28;20032;-52
2021/04/27 05:45:17;;;;;;;9.20;4.90;;;11.50;99.90;;;;;;5072634;28;20490;-51
2021/04/27 05:47:42;;;;;;;9.95;4.75;;;11.50;99.90;;;;;;5072567;28;20029;-51
2021/04/27 05:50:08;;;;;;;11.52;6.18;;;11.20;99.90;;;;;;5072360;28;20043;-51
2021/04/27 05:52:34;;;;;;;9.38;6.20;;;11.20;99.90;;;;;;5072461;28;20033;-51
2021/04/27 05:55:00;;;;;;;10.57;6.07;;;11.20;99.90;;;;;;5072112;28;20145;-51
2021/04/27 05:57:26;;;;;;;9.05;5.05;;;11.10;99.90;;;;;;5072189;28;20064;-51
2021/04/27 05:59:52;;;;;;;8.43;5.22;;;11.20;99.90;;;;;;5072358;28;20047;-51
2021/04/27 06:02:18;;;;;;;8.38;5.10;;;11.30;99.90;;;;;;5076592;28;20037;-51
2021/04/27 06:04:44;;;;;;;7.68;4.40;;;11.40;99.90;;;;;;5068753;28;20059;-51
2021/04/27 06:07:10;;;;;;;8.55;5.10;;;11.50;99.90;;;;;;5038808;28;20032;-51
2021/04/27 06:09:37;;;;;;;10.98;6.35;;;11.60;99.90;;;;;;5090536;28;20094;-50
2021/04/27 06:12:03;;;;;;;7.88;5.25;;;11.40;99.90;;;;;;5092262;28;20032;-51
2021/04/27 06:14:29;;;;;;;9.45;5.72;;;11.20;99.90;;;;;;5058475;28;20052;-51
2021/04/27 06:16:55;;;;;;;7.40;5.63;;;11.00;99.90;;;;;;5075319;28;20032;-51
2021/04/27 06:19:21;;;;;;;7.60;5.47;;;;;;;;;;5092158;28;20036;-50
2021/04/27 06:21:47;;;;;;;8.18;5.38;;;10.60;99.90;;;;;;5092164;28;20111;-51
2021/04/27 06:24:13;;;;;;;9.23;6.13;;;10.50;99.90;;;;;;5058248;28;20093;-51
2021/04/27 06:26:40;;;;;;;7.25;5.05;;;10.70;99.90;;;;;;5092076;28;20032;-50
2021/04/27 06:29:06;;;;;;;7.22;4.85;;;10.70;99.90;;;;;;5091981;28;20024;-51
2021/04/27 06:31:32;;;;;;;8.48;5.63;;;10.60;99.90;;;;;;5091862;28;20036;-51
2021/04/27 06:33:58;;;;;;;9.18;5.47;;;10.50;99.90;;;;;;5091322;28;20026;-51
2021/04/27 06:36:24;;;;;;;9.15;5.75;;;10.50;99.90;;;;;;5083845;28;20467;-51
2021/04/27 06:38:50;;;;;;;8.45;5.63;;;10.50;99.90;;;;;;5108351;28;20028;-51
2021/04/27 06:41:17;;;;;;;9.27;5.85;;;10.60;99.90;;;;;;5093707;28;20469;-52
2021/04/27 06:43:43;;;;;;;8.57;5.65;;;10.50;99.90;;;;;;5093770;28;20031;-50
2021/04/27 06:46:09;;;;;;;9.60;6.07;;;10.60;99.90;;;;;;5091612;28;20028;-50
2021/04/27 06:48:35;;;;;;;9.05;5.85;;;10.60;99.90;;;;;;5091755;28;20024;-51
2021/04/27 06:51:03;;;;;;;7.03;5.28;;;10.90;99.90;;;;;;5108973;28;20117;-51
2021/04/27 06:53:30;;;;;;;9.82;5.97;;;10.90;99.90;;;;;;5090354;28;20055;-51
2021/04/27 06:55:56;;;;;;;9.05;6.40;;;10.80;99.90;;;;;;5057926;28;20057;-50
2021/04/27 06:58:22;;;;;;;9.05;5.80;;;10.80;99.90;;;;;;5093662;28;20187;-51
2021/04/27 07:00:48;;;;;;;9.55;5.93;;;10.90;99.90;;;;;;5093980;28;20031;-51
2021/04/27 07:03:14;;;;;;;12.50;6.38;;;11.00;99.90;;;;;;5093374;28;20024;-51
2021/04/27 07:05:42;;;;;;;8.93;5.70;;;11.00;99.90;;;;;;5093423;28;20105;-51
2021/04/27 07:08:08;;;;;;;12.35;6.53;;;11.00;99.90;;;;;;5093734;28;20024;-50
2021/04/27 07:10:33;;;;;;;10.13;5.93;;;10.80;99.90;;;;;;5093667;28;20051;-51
2021/04/27 07:12:59;;;;;;;9.48;6.70;;;10.60;99.90;;;;;;5093389;28;20044;-51
2021/04/27 07:15:26;;;;;;;7.32;5.53;;;10.80;99.90;;;;;;5108511;28;20035;-50
2021/04/27 07:17:53;;;;;;;10.18;6.28;;;11.00;99.90;;;;;;5074265;28;20067;-51
2021/04/27 07:20:19;;;;;;;12.23;6.88;;;11.10;99.90;;;;;;5107066;28;20361;-51
2021/04/27 07:22:45;;;;;;;9.40;6.55;;;11.20;99.90;;;;;;5091938;28;20464;-51
2021/04/27 07:25:12;;;;;;;8.88;5.75;;;11.30;99.90;;;;;;5094090;28;20040;-51
2021/04/27 07:27:39;;;;;;;11.27;7.18;;;11.30;99.90;;;;;;5058248;28;20040;-50
2021/04/27 07:30:06;;;;;;;13.05;7.80;;;11.60;99.90;;;;;;5097535;28;20048;-51
2021/04/27 07:32:32;;;;;;;13.45;7.68;;;12.00;99.90;;;;;;5095157;28;20028;-51
2021/04/27 07:34:58;;;;;;;10.75;6.97;;;12.40;99.90;;;;;;5090986;28;20491;-52
2021/04/27 07:37:23;;;;;;;12.57;7.93;;;12.60;99.90;;;;;;5057285;28;20107;-51
2021/04/27 07:39:49;;;;;;;12.20;6.95;;;12.70;99.90;;;;;;5023781;28;20480;-51
2021/04/27 07:42:15;;;;;;;13.27;7.03;;;12.70;99.90;;;;;;5053775;28;20040;-51
2021/04/27 07:44:41;;;;;;;10.50;7.05;;;12.60;99.90;;;;;;5090808;28;20090;-53
2021/04/27 07:47:07;;;;;;;9.85;6.97;;;12.80;99.90;;;;;;5043666;28;20090;-51
2021/04/27 07:49:33;;;;;;;9.75;6.88;;;12.80;99.90;;;;;;5019026;28;20470;-51
2021/04/27 07:51:59;;;;;;;10.10;7.00;;;13.10;99.90;;;;;;5092340;28;20035;-51
2021/04/27 07:54:24;;;;;;;12.80;7.55;;;13.60;99.90;;;;;;5075224;28;20035;-55
2021/04/27 07:56:50;;;;;;;10.57;7.07;;;13.70;99.90;;;;;;5042448;28;20037;-54
2021/04/27 07:59:16;;;;;;;10.10;7.20;;;13.50;99.90;;;;;;5074702;28;20051;-53
2021/04/27 08:01:42;;;;;;;9.68;6.65;;;13.10;99.90;;;;;;5076762;28;20448;-56
2021/04/27 08:04:08;;;;;;;13.15;6.78;;;12.90;99.90;;;;;;5076841;28;20048;-55
2021/04/27 08:06:34;;;;;;;8.95;6.55;;;12.70;99.90;;;;;;5076540;28;20622;-55
2021/04/27 08:09:01;;;;;;;11.05;7.78;;;12.50;99.90;;;;;;5057970;28;20525;-55
2021/04/27 08:11:27;;;;;;;11.00;7.72;;;12.50;99.90;;;;;;5086787;28;20012;-52
2021/04/27 08:13:53;;;;;;;12.10;7.50;;;12.50;99.90;;;;;;5095557;28;20071;-55
2021/04/27 08:16:19;;;;;;;10.52;7.47;;;12.40;99.90;;;;;;5096494;28;20532;-51
2021/04/27 08:18:45;;;;;;;13.80;7.78;;;12.30;99.90;;;;;;5111501;28;20047;-53
2021/04/27 08:21:12;;;;;;;10.20;7.45;;;12.20;99.90;;;;;;5094028;28;20028;-52
2021/04/27 08:23:39;;;;;;;15.15;9.00;;;12.00;99.90;;;;;;5098413;28;20090;-54
2021/04/27 08:26:06;;;;;;;9.82;7.22;;;12.20;99.90;;;;;;5096411;28;20046;-53
2021/04/27 08:28:32;;;;;;;16.83;9.68;;;12.10;99.90;;;;;;5096897;28;20032;-54
2021/04/27 08:30:58;;;;;;;13.15;9.13;;;12.10;99.90;;;;;;5096598;28;20107;-55
2021/04/27 08:33:25;;;;;;;15.95;8.70;;;12.10;99.90;;;;;;5096342;28;20024;-55
2021/04/27 08:35:52;;;;;;;14.88;9.00;;;12.10;99.90;;;;;;5096670;28;20046;-53
2021/04/27 08:38:18;;;;;;;15.80;9.05;;;12.00;99.90;;;;;;5095660;28;20031;-56
2021/04/27 08:40:45;;;;;;;16.27;9.90;;;11.90;99.90;;;;;;5111047;28;20036;-55
2021/04/27 08:43:11;;;;;;;14.88;10.15;;;12.10;99.90;;;;;;5096451;28;20376;-55
2021/04/27 08:45:37;;;;;;;13.35;9.20;;;12.00;99.90;;;;;;5077245;28;20055;-55
2021/04/27 08:48:03;;;;;;;14.52;10.20;;;12.00;99.90;;;;;;5096508;28;20032;-55
2021/04/27 08:50:29;;;;;;;15.95;11.48;;;12.00;99.90;;;;;;5094408;28;20044;-55
2021/04/27 08:52:54;;;;;;;17.50;11.52;;;12.20;99.90;;;;;;5095066;28;20040;-55
2021/04/27 08:55:21;;;;;;;15.40;10.88;;;12.30;99.90;;;;;;5096310;28;20060;-55
2021/04/27 08:57:48;;;;;;;14.20;10.18;;;12.40;99.90;;;;;;5095758;28;20539;-56
2021/04/27 09:00:18;;;;;;;14.45;11.20;;;12.30;99.90;;;;;;5095762;28;20039;-56
2021/04/27 09:03:03;;;;;;;17.00;10.75;;;12.40;99.90;;;;;;5093762;28;20055;-55
2021/04/27 09:05:31;;;;;;;13.43;9.32;;;12.10;99.90;;;;;;5093570;28;20081;-52
2021/04/27 09:07:58;;;;;;;16.70;11.40;;;12.10;99.90;;;;;;5093843;28;20474;-54
2021/04/27 09:10:30;;;;;;;14.80;10.90;;;12.10;99.90;;;;;;5092956;28;20032;-54
2021/04/27 09:13:09;;;;;;;15.32;10.52;;;12.30;99.90;;;;;;5058660;28;20051;-53
2021/04/27 09:15:40;;;;;;;13.45;10.23;;;12.40;99.90;;;;;;5096190;28;20387;-55
2021/04/27 09:18:30;;;;;;;14.83;10.37;;;12.50;99.90;;;;;;5091277;28;20495;-54
2021/04/27 09:21:02;;;;;;;20.48;12.82;;;12.70;99.90;;;;;;5043936;28;20131;-51
2021/04/27 09:23:29;;;;;;;15.52;10.55;;;12.80;99.90;;;;;;5089995;28;20027;-53
2021/04/27 09:26:11;;;;;;;18.17;11.85;;;12.80;99.90;;;;;;5097082;28;20063;-54
2021/04/27 09:28:38;;;;;;;;;;;13.00;99.90;;;;;;5092329;28;20024;-54
2021/04/27 09:31:32;;;;;;;15.50;10.90;;;12.90;99.90;;;;;;5089266;28;19912;-57
2021/04/27 09:34:23;;;;;;;13.75;10.20;;;12.90;99.90;;;;;;4999857;28;20041;-52
2021/04/27 09:37:00;;;;;;;20.25;12.43;;;12.90;99.90;;;;;;5033069;28;20033;-52
2021/04/27 09:39:37;;;;;;;13.52;9.13;;;13.00;99.90;;;;;;5013414;28;20115;-54
2021/04/27 09:42:05;;;;;;;14.10;9.82;;;12.90;99.90;;;;;;4999944;28;20038;-53
2021/04/27 09:44:37;;;;;;;13.50;9.90;;;12.80;99.90;;;;;;4999916;28;20386;-53
2021/04/27 09:47:16;;;;;;;17.15;9.70;;;12.60;99.90;;;;;;5033074;28;20033;-56
2021/04/27 09:49:52;;;;;;;17.02;11.93;;;12.60;99.90;;;;;;5032786;28;20047;-53
2021/04/27 09:52:17;;;;;;;15.82;11.05;;;12.50;99.90;;;;;;5032626;28;20124;-54
2021/04/27 09:55:00;;;;;;;17.00;11.68;;;12.60;99.90;;;;;;5032723;28;20030;-50
2021/04/27 09:57:34;;;;;;;17.52;12.43;;;12.60;99.90;;;;;;5032809;28;20044;-52
2021/04/27 10:00:25;;;;;;;17.38;12.52;;;12.50;99.90;;;;;;5032829;28;20088;-52
2021/04/27 10:02:52;;;;;;;14.75;11.50;;;12.50;99.90;;;;;;5041124;28;20037;-56
2021/04/27 10:05:18;;;;;;;17.38;12.20;;;12.40;99.90;;;;;;4992921;28;20051;-54
2021/04/27 10:07:45;;;;;;;16.00;12.10;;;12.60;99.90;;;;;;4992782;28;20148;-52
2021/04/27 10:10:12;;;;;;;12.23;8.95;;;12.70;99.90;;;;;;5000164;28;20037;-54
2021/04/27 10:12:39;;;;;;;16.60;11.07;;;12.50;99.90;;;;;;5032168;28;20589;-53
2021/04/27 10:15:06;;;;;;;15.80;11.10;;;12.50;99.90;;;;;;5032253;28;20071;-55
2021/04/27 10:17:33;;;;;;;13.25;9.50;;;12.50;99.90;;;;;;5032172;28;20532;-52
2021/04/27 10:20:01;;;;;;;16.13;9.63;;;12.40;99.90;;;;;;5015452;28;20045;-50
2021/04/27 10:22:27;;;;;;;15.93;10.68;;;12.30;99.90;;;;;;5031210;28;20440;-51
2021/04/27 10:24:56;;;;;;;16.20;11.73;;;12.30;99.90;;;;;;5032005;28;20033;-55
2021/04/27 10:27:26;;;;;;;17.00;12.43;;;12.40;99.90;;;;;;5032235;28;20037;-53
2021/04/27 10:30:17;;;;;;;14.23;10.32;;;12.50;99.90;;;;;;5031828;28;20059;-53
2021/04/27 10:33:05;;;;;;;14.00;8.93;;;12.50;99.90;;;;;;5031692;28;20404;-54
2021/04/27 10:35:33;;;;;;;18.23;12.02;;;12.50;99.90;;;;;;5031993;28;20092;-55
2021/04/27 10:38:03;;;;;;;13.85;10.85;;;12.60;99.90;;;;;;5031671;28;20525;-54
2021/04/27 10:40:45;;;;;;;18.17;10.75;;;12.70;99.90;;;;;;5032040;28;20053;-55
2021/04/27 10:43:32;;;;;;;16.75;10.90;;;12.80;99.90;;;;;;5025987;28;20032;-54
2021/04/27 10:46:05;;;;;;;16.85;10.32;;;12.80;99.90;;;;;;5005140;28;20435;-55
2021/04/27 10:48:37;;;;;;;14.10;10.27;;;12.80;99.90;;;;;;5071633;28;20166;-55
2021/04/27 10:51:21;;;;;;;17.80;11.20;;;12.70;99.90;;;;;;5069119;28;20045;-57
2021/04/27 10:54:07;;;;;;;16.67;10.68;;;12.70;99.90;;;;;;5071560;28;20043;-52
2021/04/27 10:56:45;;;;;;;13.55;9.73;;;12.70;99.90;;;;;;5054597;28;20069;-52
2021/04/27 10:59:18;;;;;;;18.17;11.27;;;12.60;99.90;;;;;;5071299;28;20082;-51
2021/04/27 11:01:46;;;;;;;13.70;9.38;;;12.50;99.90;;;;;;5071457;28;20415;-54
2021/04/27 11:04:45;;;;;;;15.55;10.45;;;12.50;99.90;;;;;;5071510;28;20040;-51
2021/04/27 11:07:24;;;;;;;17.85;11.65;;;12.50;99.90;;;;;;5007127;28;20054;-54
2021/04/27 11:10:02;;;;;;;16.17;10.77;;;12.30;99.90;;;;;;5011676;28;20428;-55
2021/04/27 11:12:36;;;;;;;17.38;11.23;;;12.40;99.90;;;;;;5020180;28;20084;-52
2021/04/27 11:15:08;;;;;;;16.00;11.07;;;12.60;99.90;;;;;;5031053;28;20488;-52
2021/04/27 11:17:35;;;;;;;16.08;10.90;;;12.50;99.90;;;;;;5015141;28;20042;-53
2021/04/27 11:20:05;;;;;;;15.02;11.07;;;12.40;99.90;;;;;;5031407;28;20048;-55
2021/04/27 11:22:34;;;;;;;16.08;10.77;;;12.40;99.90;;;;;;5030546;28;20046;-53
2021/04/27 11:25:02;;;;;;;16.38;10.82;;;12.40;99.90;;;;;;5031049;28;20049;-50
2021/04/27 11:27:32;;;;;;;17.77;11.50;;;12.50;99.90;;;;;;5031139;28;20033;-53
2021/04/27 11:30:11;;;;;;;14.27;10.27;;;12.50;99.90;;;;;;5031045;28;20136;-55
2021/04/27 11:32:42;;;;;;;17.33;12.18;;;12.40;99.90;;;;;;5032688;28;20433;-56
2021/04/27 11:35:19;;;;;;;17.60;12.45;;;12.60;99.90;;;;;;5035362;28;20718;-54
2021/04/27 11:37:51;;;;;;;22.70;14.25;;;12.70;99.90;;;;;;5010887;28;20128;-53
2021/04/27 11:40:22;;;;;;;20.50;13.18;;;12.70;99.90;;;;;;5015300;28;20033;-47
2021/04/27 11:43:04;;;;;;;19.75;14.13;;;12.80;99.90;;;;;;5043798;28;20044;-49
2021/04/27 11:45:40;;;;;;;18.65;13.02;;;12.90;99.90;;;;;;5096982;28;20040;-47
2021/04/27 11:48:25;;;;;;;17.83;12.18;;;13.10;99.90;;;;;;5094081;28;20379;-52
2021/04/27 11:50:51;;;;;;;17.85;12.23;;;13.00;99.90;;;;;;5057453;28;20135;-50
2021/04/27 11:53:20;;;;;;;16.80;11.32;;;12.90;99.90;;;;;;5096507;28;20491;-53
2021/04/27 11:55:49;;;;;;;16.95;12.68;;;12.80;99.90;;;;;;5094209;28;20040;-51
2021/04/27 11:58:16;;;;;;;17.52;11.88;;;12.90;99.90;;;;;;5093874;28;20036;-49
2021/04/27 12:01:03;;;;;;;21.00;12.32;;;12.90;99.90;;;;;;5096331;28;20446;-50
2021/04/27 12:03:40;;;;;;;19.80;13.15;;;12.90;99.90;;;;;;5095639;28;20059;-50
2021/04/27 12:06:06;;;;;;;19.00;13.20;;;12.90;99.90;;;;;;5095865;28;20040;-48
2021/04/27 12:08:34;;;;;;;18.92;13.50;;;12.90;99.90;;;;;;5095797;28;20027;-52
2021/04/27 12:11:34;;;;;;;20.45;13.38;;;13.00;99.90;;;;;;5096159;28;20032;-50
2021/04/27 12:14:02;;;;;;;17.67;12.57;;;12.90;99.90;;;;;;5093811;28;20513;-48
2021/04/27 12:16:37;;;;;;;18.95;12.52;;;12.90;99.90;;;;;;5094689;28;20048;-50
2021/04/27 12:19:10;;;;;;;15.18;10.75;;;13.10;99.90;;;;;;5096698;28;20032;-48
2021/04/27 12:21:48;;;;;;;15.73;11.50;;;13.00;99.90;;;;;;5096858;28;20036;-49
2021/04/27 12:24:22;;;;;;;17.42;11.93;;;13.00;99.90;;;;;;5096441;28;20040;-52
2021/04/27 12:26:53;;;;;;;19.63;12.27;;;13.00;99.90;;;;;;5111820;28;20076;-48
2021/04/27 12:29:37;;;;;;;15.23;11.68;;;13.00;99.90;;;;;;5111499;28;20059;-48
2021/04/27 12:32:06;;;;;;;15.93;11.48;;;13.00;99.90;;;;;;5096600;28;20398;-52
2021/04/27 12:34:33;;;;;;;16.65;11.73;;;13.00;99.90;;;;;;5096419;28;20036;-49
2021/04/27 12:36:59;;;;;;;17.75;11.57;;;13.10;99.90;;;;;;5096364;28;20105;-51
2021/04/27 12:39:27;;;;;;;16.13;10.88;;;13.00;99.90;;;;;;5111610;28;20502;-50
2021/04/27 12:41:56;;;;;;;18.05;11.27;;;13.00;99.90;;;;;;5096651;28;20039;-49
2021/04/27 12:44:56;;;;;;;18.45;12.05;;;13.00;99.90;;;;;;5095265;28;20044;-49
2021/04/27 12:47:26;;;;;;;15.52;10.85;;;13.10;99.90;;;;;;5053623;28;20053;-54
2021/04/27 12:50:05;;;;;;;12.82;8.90;;;13.10;99.90;;;;;;5001881;28;20045;-52
2021/04/27 12:52:33;;;;;;;14.32;10.40;;;13.00;99.90;;;;;;5050967;28;20040;-52